Time;durP1;ratioP1;P1;durP2;ratioP2;P2;SDS_P1;SDS_P2;PMS_P1;PMS_P2;Temp;Humidity;BMP_temperature;BMP_pressure;BME280_temperature;BME280_humidity;BME280_pressure;Samples;Min_cycle;Max_cycle;Signal;HPM_P1;HPM_P2
2023/05/11 00:00:39;;;;;;;17.90;7.03;;;11.30;99.90;;;;;;5139787;27;20051;-85
2023/05/11 00:03:05;;;;;;;11.02;6.80;;;11.40;99.90;;;;;;5126772;27;20094;-85
2023/05/11 00:05:30;;;;;;;9.27;5.80;;;11.40;99.90;;;;;;5107961;28;20379;-85
2023/05/11 00:07:56;;;;;;;12.75;7.32;;;11.30;99.90;;;;;;5126648;27;20039;-84
2023/05/11 00:10:22;;;;;;;9.98;6.32;;;11.30;99.90;;;;;;5109609;28;20078;-84
2023/05/11 00:12:48;;;;;;;10.38;6.82;;;11.30;99.90;;;;;;5109192;28;20513;-85
2023/05/11 00:15:13;;;;;;;12.00;6.53;;;11.30;99.90;;;;;;5126153;28;20039;-85
2023/05/11 00:17:39;;;;;;;20.98;7.68;;;11.30;99.90;;;;;;5105710;28;20393;-85
2023/05/11 00:20:05;;;;;;;21.92;7.57;;;11.30;99.90;;;;;;5121818;28;20071;-84
2023/05/11 00:22:31;;;;;;;9.52;6.68;;;11.30;99.90;;;;;;5126184;28;20510;-85
2023/05/11 00:24:57;;;;;;;12.10;7.55;;;11.30;99.90;;;;;;5126891;28;20051;-85
2023/05/11 00:27:22;;;;;;;22.50;6.97;;;11.40;99.90;;;;;;5122092;28;20048;-84
2023/05/11 00:29:48;;;;;;;18.02;8.05;;;11.30;99.90;;;;;;5139806;27;20554;-84
2023/05/11 00:32:14;;;;;;;21.10;7.82;;;11.30;99.90;;;;;;5125372;28;20043;-84
2023/05/11 00:34:40;;;;;;;16.80;8.00;;;11.30;99.90;;;;;;5125152;27;20043;-85
2023/05/11 00:37:06;;;;;;;22.00;8.82;;;11.30;99.90;;;;;;5130526;27;20031;-84
2023/05/11 00:39:37;;;;;;;14.70;7.93;;;11.30;99.90;;;;;;5129787;27;20042;-84
2023/05/11 00:42:03;;;;;;;23.77;8.32;;;11.30;99.90;;;;;;5130097;27;20043;-85
2023/05/11 00:44:28;;;;;;;19.55;8.68;;;11.30;99.90;;;;;;5129668;27;20039;-85
2023/05/11 00:46:54;;;;;;;19.52;8.00;;;11.40;99.90;;;;;;5112448;27;20126;-85
2023/05/11 00:49:21;;;;;;;49.67;8.98;;;11.40;99.90;;;;;;5129290;27;20085;-85
2023/05/11 00:51:47;;;;;;;41.35;9.02;;;11.40;99.90;;;;;;5112957;27;20451;-84
2023/05/11 00:54:14;;;;;;;30.67;8.82;;;11.40;99.90;;;;;;5108963;28;20050;-85
2023/05/11 00:56:41;;;;;;;23.92;8.95;;;11.30;99.90;;;;;;5103515;27;20047;-85
2023/05/11 00:59:07;;;;;;;75.53;10.68;;;11.30;99.90;;;;;;5110171;28;20142;-85
2023/05/11 01:01:34;;;;;;;18.70;8.80;;;11.30;99.90;;;;;;5108840;27;20122;-84
2023/05/11 01:04:01;;;;;;;21.23;9.15;;;11.30;99.90;;;;;;5107462;28;20045;-85
2023/05/11 01:06:41;;;;;;;18.90;9.48;;;11.30;99.90;;;;;;5092126;28;20044;-85
2023/05/11 01:09:17;;;;;;;27.42;10.50;;;11.30;99.90;;;;;;5098625;27;20076;-85
2023/05/11 01:11:48;;;;;;;43.10;10.32;;;11.30;99.90;;;;;;5112593;27;20061;-84
2023/05/11 01:14:22;;;;;;;24.60;9.35;;;11.30;99.90;;;;;;5126154;27;20051;-85
2023/05/11 01:16:54;;;;;;;22.17;8.73;;;11.30;99.90;;;;;;5107633;27;20142;-84
2023/05/11 01:19:41;;;;;;;27.58;10.48;;;11.30;99.90;;;;;;5102311;28;20477;-85
2023/05/11 01:22:28;;;;;;;13.43;7.95;;;11.30;99.90;;;;;;5110656;27;20058;-84
2023/05/11 01:25:13;;;;;;;16.83;9.00;;;11.30;99.90;;;;;;5112355;27;20049;-85
2023/05/11 01:28:01;;;;;;;33.67;10.00;;;11.30;99.90;;;;;;5125916;27;20568;-84
2023/05/11 01:30:28;;;;;;;21.75;9.65;;;11.30;99.90;;;;;;5128913;27;20120;-85
2023/05/11 01:32:57;;;;;;;19.13;9.80;;;11.30;99.90;;;;;;5128553;27;20051;-84
2023/05/11 01:35:25;;;;;;;36.17;11.15;;;11.30;99.90;;;;;;5125261;27;20112;-85
2023/05/11 01:37:55;;;;;;;36.40;10.68;;;11.30;99.90;;;;;;5108191;27;20452;-85
2023/05/11 01:40:24;;;;;;;19.98;9.93;;;11.30;99.90;;;;;;5112068;27;20487;-85
2023/05/11 01:42:58;;;;;;;18.23;9.60;;;11.20;99.90;;;;;;5112852;27;20537;-85
2023/05/11 01:45:26;;;;;;;16.50;9.90;;;11.20;99.90;;;;;;5119435;27;20039;-85
2023/05/11 01:47:54;;;;;;;20.48;11.73;;;11.20;99.90;;;;;;5124793;27;20047;-84
2023/05/11 01:50:23;;;;;;;20.88;11.23;;;11.20;99.90;;;;;;5116320;27;20176;-85
2023/05/11 01:52:50;;;;;;;19.10;10.85;;;11.20;99.90;;;;;;5110744;27;20036;-85
2023/05/11 01:55:20;;;;;;;27.05;10.55;;;11.20;99.90;;;;;;5100626;28;20044;-85
2023/05/11 01:57:48;;;;;;;25.67;10.23;;;11.20;99.90;;;;;;5107001;28;20080;-85
2023/05/11 02:00:15;;;;;;;32.60;9.75;;;11.20;99.90;;;;;;5104807;27;20050;-84
2023/05/11 02:02:43;;;;;;;17.77;9.85;;;11.20;99.90;;;;;;5110967;27;20104;-84
2023/05/11 02:05:10;;;;;;;29.10;10.13;;;11.20;99.90;;;;;;5125015;27;20051;-84
2023/05/11 02:07:40;;;;;;;36.28;11.52;;;11.10;99.90;;;;;;5128868;27;20039;-84
2023/05/11 02:10:06;;;;;;;16.33;9.55;;;11.20;99.90;;;;;;5126483;27;20446;-85
2023/05/11 02:12:34;;;;;;;17.27;8.98;;;11.10;99.90;;;;;;5124388;27;20043;-85
2023/05/11 02:15:01;;;;;;;22.73;9.00;;;11.10;99.90;;;;;;5102669;28;20052;-84
2023/05/11 02:17:29;;;;;;;51.05;9.82;;;11.10;99.90;;;;;;5088447;28;20520;-84
2023/05/11 02:19:56;;;;;;;27.90;9.88;;;11.10;99.90;;;;;;5083752;28;20464;-84
2023/05/11 02:22:23;;;;;;;31.20;10.45;;;11.00;99.90;;;;;;5081742;28;20356;-84
2023/05/11 02:24:49;;;;;;;51.78;11.55;;;11.00;99.90;;;;;;5101635;28;20046;-84
2023/05/11 02:27:15;;;;;;;27.48;10.23;;;11.00;99.90;;;;;;5087246;28;20044;-84
2023/05/11 02:29:40;;;;;;;18.98;9.07;;;11.00;99.90;;;;;;5085944;28;20411;-84
2023/05/11 02:32:11;;;;;;;19.05;9.35;;;11.10;99.90;;;;;;5107824;28;20044;-84
2023/05/11 02:34:41;;;;;;;24.13;9.93;;;11.00;99.90;;;;;;5106997;28;20414;-83
2023/05/11 02:37:10;;;;;;;14.25;8.18;;;11.00;99.90;;;;;;5107723;28;20050;-83
2023/05/11 02:39:37;;;;;;;11.50;7.68;;;11.00;99.90;;;;;;5089332;28;20043;-83
2023/05/11 02:42:11;;;;;;;12.25;7.70;;;11.00;99.90;;;;;;5087445;28;20064;-83
2023/05/11 02:44:41;;;;;;;12.68;6.82;;;11.00;99.90;;;;;;5088128;28;20363;-84
2023/05/11 02:47:10;;;;;;;12.15;7.32;;;11.10;99.90;;;;;;5106795;28;20074;-83
2023/05/11 02:49:37;;;;;;;12.38;8.35;;;11.00;99.90;;;;;;5090041;28;20075;-84
2023/05/11 02:52:05;;;;;;;18.15;8.60;;;11.00;99.90;;;;;;5090466;28;20043;-84
2023/05/11 02:54:31;;;;;;;32.22;10.63;;;11.00;99.90;;;;;;5089039;28;20043;-83
2023/05/11 02:56:57;;;;;;;15.40;9.80;;;11.00;99.90;;;;;;5090964;28;20478;-84
2023/05/11 02:59:24;;;;;;;19.70;10.75;;;11.00;99.90;;;;;;5087886;28;20067;-84
2023/05/11 03:01:50;;;;;;;19.33;11.45;;;11.00;99.90;;;;;;5088707;28;20090;-84
2023/05/11 03:04:17;;;;;;;26.60;11.80;;;11.10;99.90;;;;;;5103362;28;20052;-83
2023/05/11 03:06:42;;;;;;;19.48;11.63;;;11.00;99.90;;;;;;5099758;28;20451;-84
2023/05/11 03:09:08;;;;;;;26.58;12.30;;;11.00;99.90;;;;;;5103332;28;20086;-84
2023/05/11 03:11:34;;;;;;;68.03;16.98;;;11.00;99.90;;;;;;5082825;28;20171;-83
2023/05/11 03:14:00;;;;;;;48.35;16.58;;;11.00;99.90;;;;;;5095830;27;20119;-84
2023/05/11 03:16:27;;;;;;;43.33;17.40;;;11.00;99.90;;;;;;5123852;27;20042;-84
2023/05/11 03:18:54;;;;;;;97.47;20.55;;;11.00;99.90;;;;;;5102813;27;20131;-84
2023/05/11 03:21:22;;;;;;;63.45;19.90;;;11.00;99.90;;;;;;5095816;27;20129;-84
2023/05/11 03:23:48;;;;;;;51.85;21.08;;;11.00;99.90;;;;;;5108574;27;20600;-85
2023/05/11 03:26:17;;;;;;;109.35;23.95;;;11.00;99.90;;;;;;5110457;27;20071;-85
2023/05/11 03:28:45;;;;;;;129.27;25.55;;;11.00;99.90;;;;;;5089878;28;20461;-84
2023/05/11 03:31:11;;;;;;;93.38;24.95;;;11.00;99.90;;;;;;5083897;28;20032;-85
2023/05/11 03:33:37;;;;;;;88.65;25.38;;;11.00;99.90;;;;;;5089664;28;20143;-84
2023/05/11 03:36:04;;;;;;;141.25;27.48;;;11.00;99.90;;;;;;5103423;28;20102;-85
2023/05/11 03:38:31;;;;;;;116.30;26.13;;;11.10;99.90;;;;;;5089541;28;20047;-84
2023/05/11 03:40:58;;;;;;;235.98;29.80;;;11.00;99.90;;;;;;5119422;27;20453;-84
2023/05/11 03:43:27;;;;;;;184.48;30.73;;;11.30;99.90;;;;;;5088726;28;20576;-84
2023/05/11 03:45:56;;;;;;;115.80;27.50;;;11.00;99.90;;;;;;5105632;28;20048;-84
2023/05/11 03:48:22;;;;;;;114.30;26.27;;;11.00;99.90;;;;;;5089635;28;20089;-84
2023/05/11 03:50:48;;;;;;;238.00;30.30;;;11.00;99.90;;;;;;5087965;28;20051;-84
2023/05/11 03:53:15;;;;;;;100.90;26.13;;;11.00;99.90;;;;;;5106573;28;20081;-84
2023/05/11 03:55:41;;;;;;;117.10;26.58;;;11.00;99.90;;;;;;5107543;27;20043;-84
2023/05/11 03:58:08;;;;;;;120.25;27.67;;;11.10;99.90;;;;;;5107392;27;20398;-84
2023/05/11 04:00:39;;;;;;;77.80;25.75;;;11.00;99.90;;;;;;5103525;28;20043;-83
2023/05/11 04:03:05;;;;;;;89.43;23.63;;;11.00;99.90;;;;;;5103442;28;20043;-84
2023/05/11 04:05:31;;;;;;;119.65;25.38;;;11.00;99.90;;;;;;5096642;28;20036;-84
2023/05/11 04:07:57;;;;;;;73.22;23.55;;;11.10;99.90;;;;;;5089496;28;20048;-84
2023/05/11 04:10:23;;;;;;;77.28;23.70;;;11.00;99.90;;;;;;5106058;28;20521;-84
2023/05/11 04:12:49;;;;;;;77.75;21.75;;;11.00;99.90;;;;;;5088546;28;20035;-83
2023/05/11 04:15:14;;;;;;;108.93;25.70;;;11.00;99.90;;;;;;5124616;28;20530;-84
2023/05/11 04:17:40;;;;;;;89.18;22.52;;;11.00;99.90;;;;;;5121994;28;20075;-84
2023/05/11 04:20:06;;;;;;;79.72;22.17;;;11.00;99.90;;;;;;5105042;28;20043;-84
2023/05/11 04:22:32;;;;;;;85.15;22.92;;;11.00;99.90;;;;;;5095909;28;20334;-85
2023/05/11 04:24:58;;;;;;;73.82;21.55;;;11.00;99.90;;;;;;5104931;28;20085;-87
2023/05/11 04:27:23;;;;;;;52.92;20.65;;;11.00;99.90;;;;;;5124441;28;20087;-84
2023/05/11 04:29:49;;;;;;;57.60;21.48;;;11.00;99.90;;;;;;5100500;28;20150;-84
2023/05/11 04:32:15;;;;;;;46.60;19.13;;;11.00;99.90;;;;;;5091727;28;20113;-83
2023/05/11 04:34:41;;;;;;;43.72;17.55;;;11.00;99.90;;;;;;5095728;28;20054;-84
2023/05/11 04:37:06;;;;;;;61.28;20.60;;;11.00;99.90;;;;;;5126013;28;20043;-83
2023/05/11 04:39:33;;;;;;;37.35;17.90;;;11.00;99.90;;;;;;5124776;28;20489;-84
2023/05/11 04:42:00;;;;;;;46.72;18.92;;;11.00;99.90;;;;;;5100111;28;20066;-84
2023/05/11 04:44:26;;;;;;;42.15;19.27;;;11.00;99.90;;;;;;5102061;28;20092;-84
2023/05/11 04:46:54;;;;;;;36.88;18.50;;;11.10;99.90;;;;;;5114814;27;20031;-85
2023/05/11 04:49:20;;;;;;;37.05;18.08;;;11.10;99.90;;;;;;5125396;28;20058;-84
2023/05/11 04:51:45;;;;;;;38.75;18.55;;;11.10;99.90;;;;;;5126471;28;20126;-84
2023/05/11 04:54:11;;;;;;;42.10;18.73;;;11.10;99.90;;;;;;5108467;28;20403;-84
2023/05/11 04:56:39;;;;;;;77.38;19.60;;;11.10;99.90;;;;;;5109171;28;20039;-85
2023/05/11 04:59:06;;;;;;;43.85;18.38;;;11.10;99.90;;;;;;5106550;28;20153;-85
2023/05/11 05:01:32;;;;;;;35.53;18.20;;;11.10;99.90;;;;;;5107415;28;20050;-85
2023/05/11 05:03:57;;;;;;;48.45;17.60;;;11.10;99.90;;;;;;5126740;28;20378;-85
2023/05/11 05:06:23;;;;;;;38.63;16.80;;;11.00;99.90;;;;;;5108473;28;20045;-85
2023/05/11 05:08:49;;;;;;;98.50;20.17;;;11.00;99.90;;;;;;5108824;28;20043;-85
2023/05/11 05:11:15;;;;;;;39.65;16.63;;;11.00;99.90;;;;;;5109321;28;20079;-85
2023/05/11 05:13:41;;;;;;;51.42;17.25;;;11.00;99.90;;;;;;5113955;28;20082;-85
2023/05/11 05:16:06;;;;;;;47.75;15.63;;;11.00;99.90;;;;;;5112087;28;20665;-85
2023/05/11 05:18:32;;;;;;;24.30;13.50;;;11.00;99.90;;;;;;5095644;28;20097;-85
2023/05/11 05:20:58;;;;;;;20.08;11.75;;;11.00;99.90;;;;;;5105914;28;20112;-85
2023/05/11 05:23:24;;;;;;;21.98;11.93;;;10.90;99.90;;;;;;5109164;27;20448;-84
2023/05/11 05:25:50;;;;;;;22.00;11.32;;;11.00;99.90;;;;;;5109283;28;20034;-85
2023/05/11 05:28:15;;;;;;;21.65;11.15;;;11.00;99.90;;;;;;5095118;27;20043;-84
2023/05/11 05:30:41;;;;;;;17.92;9.98;;;11.00;99.90;;;;;;5094454;28;20136;-84
2023/05/11 05:33:07;;;;;;;20.35;10.40;;;11.10;99.90;;;;;;5127707;27;20100;-85
2023/05/11 05:35:32;;;;;;;18.70;10.27;;;11.10;99.90;;;;;;5124618;27;20047;-85
2023/05/11 05:37:58;;;;;;;20.25;10.13;;;11.10;99.90;;;;;;5096793;27;20122;-85
2023/05/11 05:40:24;;;;;;;25.45;11.48;;;11.10;99.90;;;;;;5116037;27;20059;-85
2023/05/11 05:42:49;;;;;;;19.45;9.90;;;11.20;99.90;;;;;;5108473;27;20066;-85
2023/05/11 05:45:15;;;;;;;26.38;12.23;;;11.20;99.90;;;;;;5129767;27;20481;-85
2023/05/11 05:47:41;;;;;;;30.52;11.88;;;11.20;99.90;;;;;;5111019;27;20045;-85
2023/05/11 05:50:07;;;;;;;28.67;12.13;;;11.30;99.90;;;;;;5112110;27;20428;-85
2023/05/11 05:52:33;;;;;;;27.20;13.15;;;11.30;99.90;;;;;;5111963;27;20072;-85
2023/05/11 05:54:59;;;;;;;30.20;13.65;;;11.40;99.90;;;;;;5112427;27;20043;-85
2023/05/11 05:57:24;;;;;;;29.45;13.30;;;11.40;99.90;;;;;;5106230;27;20416;-84
2023/05/11 05:59:50;;;;;;;29.75;13.82;;;11.50;99.90;;;;;;5111380;27;20039;-84
2023/05/11 06:02:16;;;;;;;31.67;13.15;;;11.50;99.90;;;;;;5104511;28;20040;-84
2023/05/11 06:04:41;;;;;;;33.00;14.43;;;11.60;99.90;;;;;;5118318;27;20108;-84
2023/05/11 06:07:07;;;;;;;29.60;14.00;;;11.60;99.90;;;;;;5104179;28;20036;-84
2023/05/11 06:09:33;;;;;;;30.98;13.93;;;11.60;99.90;;;;;;5122989;27;20153;-84
2023/05/11 06:11:59;;;;;;;28.90;12.07;;;11.60;99.90;;;;;;5120216;27;20115;-85
2023/05/11 06:14:25;;;;;;;23.55;12.27;;;11.70;99.90;;;;;;5116710;27;20126;-85
2023/05/11 06:16:52;;;;;;;29.27;14.27;;;11.70;99.90;;;;;;5103663;27;20050;-85
2023/05/11 06:19:18;;;;;;;24.20;11.27;;;11.70;99.90;;;;;;5100991;28;20050;-85
2023/05/11 06:21:44;;;;;;;28.70;13.02;;;11.70;99.90;;;;;;5099425;28;20411;-84
2023/05/11 06:24:10;;;;;;;30.20;13.30;;;11.70;99.90;;;;;;5116764;27;20047;-85
2023/05/11 06:26:36;;;;;;;26.55;12.48;;;11.70;99.90;;;;;;5098127;28;20768;-85
2023/05/11 06:29:02;;;;;;;28.42;12.23;;;11.80;99.90;;;;;;5102396;27;20031;-85
2023/05/11 06:31:28;;;;;;;29.52;15.02;;;11.80;99.90;;;;;;5099780;28;20047;-84
2023/05/11 06:33:54;;;;;;;31.02;14.27;;;11.80;99.90;;;;;;5101572;28;20053;-85
2023/05/11 06:36:19;;;;;;;25.20;13.43;;;11.90;99.90;;;;;;5104463;28;20043;-84
2023/05/11 06:38:45;;;;;;;23.02;11.82;;;11.90;99.90;;;;;;5103680;28;20040;-85
2023/05/11 06:41:12;;;;;;;23.10;12.68;;;12.00;99.90;;;;;;5125399;27;20489;-83
2023/05/11 06:43:37;;;;;;;28.13;14.27;;;12.10;99.90;;;;;;5111243;27;20409;-85
2023/05/11 06:46:03;;;;;;;26.15;13.40;;;12.20;99.90;;;;;;5109787;27;20043;-85
2023/05/11 06:48:30;;;;;;;27.52;14.02;;;12.20;99.90;;;;;;5107498;28;20295;-84
2023/05/11 06:50:56;;;;;;;24.65;13.20;;;12.30;99.90;;;;;;5116579;27;20511;-85
2023/05/11 06:53:22;;;;;;;27.63;13.65;;;12.40;99.90;;;;;;5105339;27;20130;-85
2023/05/11 06:55:47;;;;;;;26.65;13.02;;;12.40;99.90;;;;;;5102373;27;20126;-83
2023/05/11 06:58:13;;;;;;;21.55;12.52;;;12.50;99.90;;;;;;5115397;27;20410;-84
2023/05/11 07:00:39;;;;;;;23.45;13.13;;;12.60;99.90;;;;;;5103365;28;20043;-84
2023/05/11 07:03:05;;;;;;;26.25;13.52;;;12.60;99.90;;;;;;5105846;28;20043;-84
2023/05/11 07:05:31;;;;;;;21.67;12.95;;;12.70;99.90;;;;;;5098397;27;20050;-85
2023/05/11 07:07:57;;;;;;;20.20;12.57;;;12.80;99.90;;;;;;5095256;28;20651;-84
2023/05/11 07:10:23;;;;;;;22.63;12.80;;;12.90;99.90;;;;;;5094243;28;20039;-85
2023/05/11 07:12:49;;;;;;;20.05;12.10;;;13.00;99.90;;;;;;5096176;28;20047;-86
2023/05/11 07:15:15;;;;;;;20.25;12.10;;;13.00;99.90;;;;;;5098971;28;20051;-83
2023/05/11 07:17:40;;;;;;;19.73;12.05;;;13.00;99.90;;;;;;5119026;27;20424;-85
2023/05/11 07:20:07;;;;;;;24.27;11.38;;;13.10;99.90;;;;;;5127667;27;20035;-83
2023/05/11 07:22:32;;;;;;;20.85;11.88;;;13.10;99.90;;;;;;5105588;28;20039;-83
2023/05/11 07:24:59;;;;;;;23.42;11.73;;;13.10;99.90;;;;;;5108124;27;20446;-84
2023/05/11 07:27:25;;;;;;;19.75;11.60;;;13.10;99.90;;;;;;5110534;27;20049;-85
2023/05/11 07:29:51;;;;;;;20.17;11.30;;;13.10;99.90;;;;;;5110497;27;20038;-83
2023/05/11 07:32:17;;;;;;;22.58;10.60;;;13.10;99.90;;;;;;5119002;27;20117;-84
2023/05/11 07:34:43;;;;;;;24.10;11.88;;;13.20;99.90;;;;;;5109760;27;20051;-84
2023/05/11 07:37:10;;;;;;;17.98;11.15;;;13.10;99.90;;;;;;5114473;27;20040;-83
2023/05/11 07:39:36;;;;;;;18.67;10.85;;;13.10;99.90;;;;;;5123024;27;20474;-83
2023/05/11 07:42:02;;;;;;;20.88;10.95;;;13.10;99.90;;;;;;5110326;27;20176;-84
2023/05/11 07:44:28;;;;;;;20.73;10.45;;;13.10;99.90;;;;;;5109779;27;20077;-84
2023/05/11 07:46:54;;;;;;;21.77;11.73;;;13.10;99.90;;;;;;5111096;27;20467;-84
2023/05/11 07:49:26;;;;;;;20.55;11.40;;;13.10;99.90;;;;;;5109337;27;20043;-85
2023/05/11 07:51:52;;;;;;;17.83;10.82;;;13.10;99.90;;;;;;5111618;27;20126;-85
2023/05/11 07:54:17;;;;;;;18.45;10.82;;;13.00;99.90;;;;;;5108206;27;20470;-85
2023/05/11 07:56:43;;;;;;;20.65;11.10;;;13.00;99.90;;;;;;5108759;27;20039;-85
2023/05/11 07:59:09;;;;;;;20.15;11.90;;;13.00;99.90;;;;;;5123704;27;20042;-84
2023/05/11 08:01:35;;;;;;;17.33;10.57;;;13.10;99.90;;;;;;5091040;28;20040;-84
2023/05/11 08:04:01;;;;;;;17.38;11.07;;;13.10;99.90;;;;;;5123038;27;20122;-84
2023/05/11 08:06:27;;;;;;;21.55;12.65;;;13.10;99.90;;;;;;5113701;27;20126;-84
2023/05/11 08:08:52;;;;;;;20.40;11.35;;;13.10;99.90;;;;;;5106015;28;20040;-84
2023/05/11 08:11:18;;;;;;;17.95;11.50;;;13.20;99.90;;;;;;5100208;28;20054;-83
2023/05/11 08:13:44;;;;;;;20.98;12.10;;;13.20;99.90;;;;;;5106203;27;20104;-84
2023/05/11 08:16:09;;;;;;;19.20;11.50;;;13.20;99.90;;;;;;5123238;27;20479;-84
2023/05/11 08:18:35;;;;;;;19.65;11.68;;;13.20;99.90;;;;;;5113099;28;20096;-84
2023/05/11 08:21:01;;;;;;;19.85;11.90;;;13.20;99.90;;;;;;5090401;28;20070;-84
2023/05/11 08:23:26;;;;;;;21.13;10.23;;;13.10;99.90;;;;;;5123089;28;20098;-84
2023/05/11 08:25:54;;;;;;;16.75;10.57;;;13.10;99.90;;;;;;5122444;28;20055;-85
2023/05/11 08:28:20;;;;;;;18.95;11.07;;;13.10;99.90;;;;;;5121446;28;20123;-84
2023/05/11 08:30:52;;;;;;;17.13;10.93;;;13.10;99.90;;;;;;5116977;27;20072;-84
2023/05/11 08:33:18;;;;;;;17.75;10.57;;;13.10;99.90;;;;;;5122283;28;20050;-84
2023/05/11 08:35:44;;;;;;;18.63;11.05;;;13.10;99.90;;;;;;5106692;28;20075;-84
2023/05/11 08:38:09;;;;;;;19.50;11.23;;;13.10;99.90;;;;;;5112440;28;20046;-84
2023/05/11 08:40:35;;;;;;;17.33;10.82;;;13.10;99.90;;;;;;5109683;28;20092;-84
2023/05/11 08:43:04;;;;;;;19.05;11.25;;;13.10;99.90;;;;;;5091127;28;20419;-84
2023/05/11 08:45:32;;;;;;;19.05;11.60;;;13.10;99.90;;;;;;5088459;28;20486;-84
2023/05/11 08:47:58;;;;;;;15.77;10.30;;;13.20;99.90;;;;;;5121407;28;20043;-85
2023/05/11 08:50:24;;;;;;;21.23;10.75;;;13.20;99.90;;;;;;5100687;28;20054;-84
2023/05/11 08:52:50;;;;;;;16.75;9.98;;;13.20;99.90;;;;;;5107710;28;20047;-84
2023/05/11 08:55:16;;;;;;;18.33;11.88;;;13.30;99.90;;;;;;5109050;28;20172;-84
2023/05/11 08:57:45;;;;;;;18.33;11.18;;;13.20;99.90;;;;;;5129690;27;20125;-84
2023/05/11 09:00:12;;;;;;;18.60;11.40;;;13.40;99.90;;;;;;5129308;27;20104;-84
2023/05/11 09:02:38;;;;;;;20.50;11.85;;;13.40;99.90;;;;;;5129615;27;20043;-85
2023/05/11 09:05:04;;;;;;;20.52;11.95;;;13.50;99.90;;;;;;5112837;27;20047;-85
2023/05/11 09:07:33;;;;;;;17.45;10.93;;;13.50;99.90;;;;;;5111980;27;20039;-85
2023/05/11 09:10:00;;;;;;;15.95;10.43;;;13.50;99.90;;;;;;5109588;27;20491;-85
2023/05/11 09:12:27;;;;;;;19.50;12.13;;;13.60;99.90;;;;;;5112850;27;20043;-85
2023/05/11 09:14:53;;;;;;;17.30;10.25;;;13.60;99.90;;;;;;5109226;27;20044;-85
2023/05/11 09:17:19;;;;;;;15.50;10.30;;;13.60;99.90;;;;;;5108796;28;20059;-85
2023/05/11 09:19:58;;;;;;;14.57;9.88;;;13.70;99.90;;;;;;5104372;27;20491;-85
2023/05/11 09:22:24;;;;;;;17.98;10.95;;;13.80;99.90;;;;;;5108052;28;20043;-85
2023/05/11 09:24:50;;;;;;;17.20;10.98;;;13.90;99.90;;;;;;5125661;27;20047;-85
2023/05/11 09:27:15;;;;;;;19.27;11.75;;;14.00;99.90;;;;;;5125518;27;20134;-85
2023/05/11 09:29:41;;;;;;;18.55;11.35;;;14.00;99.90;;;;;;5108073;27;20122;-86
2023/05/11 09:32:07;;;;;;;17.25;11.00;;;14.20;99.90;;;;;;5112364;27;20085;-85
2023/05/11 09:34:33;;;;;;;16.58;10.95;;;14.20;99.90;;;;;;5110373;27;20047;-86
2023/05/11 09:36:58;;;;;;;13.23;9.55;;;14.30;99.90;;;;;;5125159;27;20038;-86
2023/05/11 09:39:35;;;;;;;19.17;10.20;;;14.40;99.90;;;;;;5141643;27;20051;-86
2023/05/11 09:42:15;;;;;;;13.73;9.40;;;14.40;99.90;;;;;;5111827;27;20143;-86
2023/05/11 09:44:41;;;;;;;15.27;10.30;;;14.60;99.90;;;;;;5112711;27;20075;-85
2023/05/11 09:47:14;;;;;;;13.93;9.68;;;14.70;99.90;;;;;;5129888;27;20043;-87
2023/05/11 09:49:42;;;;;;;18.38;10.82;;;14.90;99.90;;;;;;5108458;28;20054;-86
2023/05/11 09:52:09;;;;;;;15.88;11.32;;;15.00;99.90;;;;;;5106149;27;20051;-86
2023/05/11 09:54:42;;;;;;;12.30;8.90;;;15.10;99.90;;;;;;5129370;27;20043;-85
2023/05/11 09:57:28;;;;;;;14.40;9.45;;;15.10;99.90;;;;;;5109559;27;20047;-86
2023/05/11 09:59:55;;;;;;;13.98;10.18;;;15.10;99.90;;;;;;5129963;27;20047;-85
2023/05/11 10:02:29;;;;;;;14.85;10.07;;;15.00;99.90;;;;;;5111029;27;20043;-85
2023/05/11 10:04:57;;;;;;;13.27;10.02;;;15.10;99.90;;;;;;5129363;27;20043;-85
2023/05/11 10:07:30;;;;;;;11.80;8.68;;;15.30;99.90;;;;;;5124812;27;20036;-85
2023/05/11 10:10:00;;;;;;;13.30;8.07;;;15.80;99.90;;;;;;5118661;27;20050;-84
2023/05/11 10:12:26;;;;;;;11.20;7.80;;;15.70;99.90;;;;;;5112480;27;20718;-85
2023/05/11 10:15:01;;;;;;;11.45;7.80;;;15.90;99.90;;;;;;5119900;27;20066;-84
2023/05/11 10:17:29;;;;;;;15.52;9.45;;;16.10;99.90;;;;;;5112290;27;20135;-84
2023/05/11 10:19:56;;;;;;;15.70;10.30;;;16.30;99.90;;;;;;5105982;27;20051;-85
2023/05/11 10:22:24;;;;;;;14.45;8.98;;;16.40;99.90;;;;;;5111144;27;20038;-85
2023/05/11 10:24:50;;;;;;;11.27;7.85;;;16.60;99.90;;;;;;5127587;27;20386;-85
2023/05/11 10:27:17;;;;;;;11.98;7.60;;;16.60;99.90;;;;;;5102874;28;20039;-85
2023/05/11 10:29:44;;;;;;;9.98;7.72;;;16.60;99.90;;;;;;5107666;27;20103;-85
2023/05/11 10:32:11;;;;;;;10.70;7.22;;;16.60;99.90;;;;;;5124598;27;20538;-85
2023/05/11 10:34:42;;;;;;;13.55;8.98;;;16.70;99.90;;;;;;5106567;27;20085;-85
2023/05/11 10:37:09;;;;;;;12.32;8.60;;;16.70;99.90;;;;;;5107974;28;20139;-85
2023/05/11 10:39:37;;;;;;;13.90;8.80;;;16.70;99.90;;;;;;5107427;27;20039;-84
2023/05/11 10:42:07;;;;;;;12.75;9.43;;;16.80;99.90;;;;;;5111989;27;20124;-85
2023/05/11 10:44:46;;;;;;;15.93;8.90;;;16.90;99.90;;;;;;5123958;27;20035;-84
2023/05/11 10:47:31;;;;;;;16.63;9.70;;;17.00;99.90;;;;;;5099167;28;20056;-85
2023/05/11 10:50:21;;;;;;;16.65;9.52;;;16.90;99.90;;;;;;5112847;27;20067;-85
2023/05/11 10:53:16;;;;;;;18.55;11.32;;;16.90;99.90;;;;;;5095504;27;20114;-85
2023/05/11 10:55:58;;;;;;;15.65;10.77;;;17.00;99.90;;;;;;5109436;27;20047;-84
2023/05/11 10:58:48;;;;;;;14.50;9.85;;;17.00;99.90;;;;;;5107365;28;20047;-85
2023/05/11 11:01:35;;;;;;;15.73;9.73;;;17.10;99.90;;;;;;5119267;27;20054;-84
2023/05/11 11:04:04;;;;;;;12.93;7.90;;;17.10;99.90;;;;;;5128115;27;20050;-83
2023/05/11 11:06:31;;;;;;;10.63;7.22;;;17.10;99.90;;;;;;5126200;27;20457;-84
2023/05/11 11:09:01;;;;;;;9.55;6.78;;;17.30;99.90;;;;;;5124642;27;20078;-84
2023/05/11 11:11:29;;;;;;;9.30;6.45;;;17.50;99.90;;;;;;5103065;28;20032;-84
2023/05/11 11:13:57;;;;;;;13.68;7.07;;;17.70;99.90;;;;;;5108490;27;20050;-84
2023/05/11 11:16:24;;;;;;;8.75;5.80;;;17.80;99.90;;;;;;5106120;28;20103;-84
2023/05/11 11:18:50;;;;;;;12.32;6.13;;;17.90;99.90;;;;;;5105985;28;20042;-85
2023/05/11 11:21:40;;;;;;;11.00;6.25;;;17.80;99.90;;;;;;5125043;27;20043;-85
2023/05/11 11:24:05;;;;;;;7.30;4.95;;;17.80;99.90;;;;;;5127357;27;20146;-85
2023/05/11 11:26:48;;;;;;;6.82;4.82;;;17.60;99.90;;;;;;5121511;27;20038;-86
2023/05/11 11:29:14;;;;;;;7.10;5.00;;;17.50;99.90;;;;;;5103466;28;20065;-85
2023/05/11 11:31:40;;;;;;;7.00;4.15;;;17.50;99.90;;;;;;5107600;27;20043;-85
2023/05/11 11:34:26;;;;;;;7.53;3.15;;;17.50;99.90;;;;;;5103342;27;20376;-84
2023/05/11 11:36:55;;;;;;;4.00;2.65;;;17.40;99.90;;;;;;5103125;27;20039;-84
2023/05/11 11:39:21;;;;;;;6.57;2.72;;;17.50;99.90;;;;;;5103556;27;20079;-83
2023/05/11 11:42:05;;;;;;;5.47;2.92;;;17.60;99.90;;;;;;5119068;27;20039;-83
2023/05/11 11:44:32;;;;;;;4.05;2.55;;;17.70;99.90;;;;;;5104022;28;20043;-84
2023/05/11 11:47:19;;;;;;;5.95;2.78;;;17.70;99.90;;;;;;5109335;27;20043;-84
2023/05/11 11:49:49;;;;;;;4.00;2.30;;;17.70;99.90;;;;;;5105547;28;20070;-83
2023/05/11 11:52:27;;;;;;;3.70;2.25;;;17.80;99.90;;;;;;5117362;27;20494;-84
2023/05/11 11:54:54;;;;;;;3.78;2.28;;;17.70;99.90;;;;;;5115537;27;20039;-84
2023/05/11 11:57:42;;;;;;;6.00;2.55;;;17.70;99.90;;;;;;5125279;27;20040;-84
2023/05/11 12:00:11;;;;;;;5.15;2.60;;;17.70;99.90;;;;;;5106562;28;20043;-84
2023/05/11 12:02:42;;;;;;;3.42;2.03;;;17.70;99.90;;;;;;5108066;27;20042;-84
2023/05/11 12:05:11;;;;;;;4.05;1.98;;;17.90;99.90;;;;;;5126433;27;20398;-84
2023/05/11 12:07:42;;;;;;;4.35;2.28;;;18.00;99.90;;;;;;5122523;27;20130;-83
2023/05/11 12:10:10;;;;;;;4.93;2.20;;;18.20;99.90;;;;;;5107701;27;20058;-83
2023/05/11 12:12:37;;;;;;;4.18;2.13;;;18.30;99.90;;;;;;5127239;27;20100;-83
2023/05/11 12:15:05;;;;;;;3.90;1.98;;;18.30;99.90;;;;;;5106616;28;20051;-83
2023/05/11 12:17:33;;;;;;;2.63;1.60;;;18.20;99.90;;;;;;5109700;28;20111;-83
2023/05/11 12:20:16;;;;;;;4.03;1.92;;;18.10;99.90;;;;;;5119254;28;20112;-83
2023/05/11 12:22:43;;;;;;;4.22;2.47;;;18.00;99.90;;;;;;5106323;28;20040;-83
2023/05/11 12:25:11;;;;;;;4.55;2.70;;;17.90;99.90;;;;;;5106744;28;20046;-84
2023/05/11 12:27:54;;;;;;;4.18;3.10;;;17.80;99.90;;;;;;5106383;28;20043;-83
2023/05/11 12:30:26;;;;;;;5.50;2.90;;;17.90;99.90;;;;;;5105648;28;20043;-84
2023/05/11 12:32:52;;;;;;;4.22;2.60;;;17.90;99.90;;;;;;5104294;27;20074;-84
2023/05/11 12:35:24;;;;;;;6.05;3.50;;;18.10;99.90;;;;;;5129903;27;20079;-84